sensor_id;sensor_type;location;lat;lon;timestamp;temperature;humidity
14188;DHT22;7175;51.978;5.330;2023-10-31T00:00:51;11.00;99.90
14188;DHT22;7175;51.978;5.330;2023-10-31T00:03:20;11.00;99.90
14188;DHT22;7175;51.978;5.330;2023-10-31T00:05:48;11.00;99.90
14188;DHT22;7175;51.978;5.330;2023-10-31T00:08:16;11.00;99.90
14188;DHT22;7175;51.978;5.330;2023-10-31T00:10:44;11.10;99.90
14188;DHT22;7175;51.978;5.330;2023-10-31T00:13:13;11.10;99.90
14188;DHT22;7175;51.978;5.330;2023-10-31T00:15:42;11.10;99.90
14188;DHT22;7175;51.978;5.330;2023-10-31T00:18:10;11.10;99.90
14188;DHT22;7175;51.978;5.330;2023-10-31T00:20:38;11.10;99.90
14188;DHT22;7175;51.978;5.330;2023-10-31T00:23:06;11.10;99.90
14188;DHT22;7175;51.978;5.330;2023-10-31T00:25:35;11.10;99.90
14188;DHT22;7175;51.978;5.330;2023-10-31T00:28:03;11.10;99.90
14188;DHT22;7175;51.978;5.330;2023-10-31T00:30:31;11.10;99.90
14188;DHT22;7175;51.978;5.330;2023-10-31T00:33:00;11.10;99.90
14188;DHT22;7175;51.978;5.330;2023-10-31T00:35:28;11.20;99.90
14188;DHT22;7175;51.978;5.330;2023-10-31T00:37:57;11.20;99.90
14188;DHT22;7175;51.978;5.330;2023-10-31T00:40:26;11.20;99.90
14188;DHT22;7175;51.978;5.330;2023-10-31T00:42:54;11.10;99.90
14188;DHT22;7175;51.978;5.330;2023-10-31T00:45:23;11.10;99.90
14188;DHT22;7175;51.978;5.330;2023-10-31T00:47:51;11.10;99.90
14188;DHT22;7175;51.978;5.330;2023-10-31T00:50:21;11.10;99.90
14188;DHT22;7175;51.978;5.330;2023-10-31T00:52:49;11.10;99.90
14188;DHT22;7175;51.978;5.330;2023-10-31T00:55:17;11.00;99.90
14188;DHT22;7175;51.978;5.330;2023-10-31T00:57:46;11.00;99.90
14188;DHT22;7175;51.978;5.330;2023-10-31T01:00:14;11.00;99.90
14188;DHT22;7175;51.978;5.330;2023-10-31T01:02:42;11.00;99.90
14188;DHT22;7175;51.978;5.330;2023-10-31T01:05:11;11.00;99.90
14188;DHT22;7175;51.978;5.330;2023-10-31T01:07:40;11.00;99.90
14188;DHT22;7175;51.978;5.330;2023-10-31T01:10:09;11.00;99.90
14188;DHT22;7175;51.978;5.330;2023-10-31T01:12:37;11.00;99.90
14188;DHT22;7175;51.978;5.330;2023-10-31T01:15:06;11.00;99.90
14188;DHT22;7175;51.978;5.330;2023-10-31T01:17:34;11.10;99.90
14188;DHT22;7175;51.978;5.330;2023-10-31T01:20:03;11.10;99.90
14188;DHT22;7175;51.978;5.330;2023-10-31T01:22:32;11.10;99.90
14188;DHT22;7175;51.978;5.330;2023-10-31T01:25:01;11.10;99.90
14188;DHT22;7175;51.978;5.330;2023-10-31T01:27:29;11.10;99.90
14188;DHT22;7175;51.978;5.330;2023-10-31T01:29:57;11.10;99.90
14188;DHT22;7175;51.978;5.330;2023-10-31T01:32:25;11.10;99.90
14188;DHT22;7175;51.978;5.330;2023-10-31T01:34:53;11.10;99.90
14188;DHT22;7175;51.978;5.330;2023-10-31T01:37:21;11.10;99.90
14188;DHT22;7175;51.978;5.330;2023-10-31T01:39:49;11.10;99.90
14188;DHT22;7175;51.978;5.330;2023-10-31T01:42:18;11.10;99.90
14188;DHT22;7175;51.978;5.330;2023-10-31T01:44:46;11.10;99.90
14188;DHT22;7175;51.978;5.330;2023-10-31T01:47:14;11.10;99.90
14188;DHT22;7175;51.978;5.330;2023-10-31T01:49:43;11.10;99.90
14188;DHT22;7175;51.978;5.330;2023-10-31T01:52:11;11.10;99.90
14188;DHT22;7175;51.978;5.330;2023-10-31T01:54:39;11.10;99.90
14188;DHT22;7175;51.978;5.330;2023-10-31T01:57:07;11.10;99.90
14188;DHT22;7175;51.978;5.330;2023-10-31T01:59:37;11.10;99.90
14188;DHT22;7175;51.978;5.330;2023-10-31T02:02:04;11.10;99.90
14188;DHT22;7175;51.978;5.330;2023-10-31T02:04:32;11.10;99.90
14188;DHT22;7175;51.978;5.330;2023-10-31T02:07:01;11.20;99.90
14188;DHT22;7175;51.978;5.330;2023-10-31T02:09:29;11.20;99.90
14188;DHT22;7175;51.978;5.330;2023-10-31T02:11:57;11.10;99.90
14188;DHT22;7175;51.978;5.330;2023-10-31T02:14:26;11.20;99.90
14188;DHT22;7175;51.978;5.330;2023-10-31T02:16:55;11.20;99.90
14188;DHT22;7175;51.978;5.330;2023-10-31T02:19:23;11.20;99.90
14188;DHT22;7175;51.978;5.330;2023-10-31T02:21:53;11.20;99.90
14188;DHT22;7175;51.978;5.330;2023-10-31T02:24:21;11.20;99.90
14188;DHT22;7175;51.978;5.330;2023-10-31T02:26:49;11.20;99.90
14188;DHT22;7175;51.978;5.330;2023-10-31T02:29:17;11.20;99.90
14188;DHT22;7175;51.978;5.330;2023-10-31T02:31:45;11.20;99.90
14188;DHT22;7175;51.978;5.330;2023-10-31T02:34:14;11.20;99.90
14188;DHT22;7175;51.978;5.330;2023-10-31T02:36:42;11.20;99.90
14188;DHT22;7175;51.978;5.330;2023-10-31T02:39:12;11.20;99.90
14188;DHT22;7175;51.978;5.330;2023-10-31T02:41:40;11.20;99.90
14188;DHT22;7175;51.978;5.330;2023-10-31T02:44:08;11.30;99.90
14188;DHT22;7175;51.978;5.330;2023-10-31T02:46:38;11.30;99.90
14188;DHT22;7175;51.978;5.330;2023-10-31T02:49:06;11.30;99.90
14188;DHT22;7175;51.978;5.330;2023-10-31T02:51:36;11.30;99.90
14188;DHT22;7175;51.978;5.330;2023-10-31T02:54:05;11.30;99.90
14188;DHT22;7175;51.978;5.330;2023-10-31T02:56:35;11.20;99.90
14188;DHT22;7175;51.978;5.330;2023-10-31T02:59:03;11.30;99.90
14188;DHT22;7175;51.978;5.330;2023-10-31T03:01:31;11.30;99.90
14188;DHT22;7175;51.978;5.330;2023-10-31T03:03:59;11.30;99.90
14188;DHT22;7175;51.978;5.330;2023-10-31T03:06:27;11.30;99.90
14188;DHT22;7175;51.978;5.330;2023-10-31T03:08:55;11.30;99.90
14188;DHT22;7175;51.978;5.330;2023-10-31T03:11:24;11.30;99.90
14188;DHT22;7175;51.978;5.330;2023-10-31T03:13:54;11.30;99.90
14188;DHT22;7175;51.978;5.330;2023-10-31T03:16:23;11.30;99.90
14188;DHT22;7175;51.978;5.330;2023-10-31T03:18:51;11.30;99.90
14188;DHT22;7175;51.978;5.330;2023-10-31T03:21:19;11.30;99.90
14188;DHT22;7175;51.978;5.330;2023-10-31T03:23:49;11.30;99.90
14188;DHT22;7175;51.978;5.330;2023-10-31T03:26:19;11.30;99.90
14188;DHT22;7175;51.978;5.330;2023-10-31T03:28:47;11.30;99.90
14188;DHT22;7175;51.978;5.330;2023-10-31T03:31:17;11.30;99.90
14188;DHT22;7175;51.978;5.330;2023-10-31T03:33:45;11.20;99.90
14188;DHT22;7175;51.978;5.330;2023-10-31T03:36:13;11.20;99.90
14188;DHT22;7175;51.978;5.330;2023-10-31T03:38:41;11.20;99.90
14188;DHT22;7175;51.978;5.330;2023-10-31T03:41:11;11.20;99.90
14188;DHT22;7175;51.978;5.330;2023-10-31T03:43:40;11.20;99.90
14188;DHT22;7175;51.978;5.330;2023-10-31T03:46:08;11.20;99.90
14188;DHT22;7175;51.978;5.330;2023-10-31T03:48:37;11.20;99.90
14188;DHT22;7175;51.978;5.330;2023-10-31T03:51:06;11.30;99.90
14188;DHT22;7175;51.978;5.330;2023-10-31T03:53:34;11.30;99.90
14188;DHT22;7175;51.978;5.330;2023-10-31T03:56:02;11.30;99.90
14188;DHT22;7175;51.978;5.330;2023-10-31T03:58:30;11.30;99.90
14188;DHT22;7175;51.978;5.330;2023-10-31T04:00:58;11.30;99.90
14188;DHT22;7175;51.978;5.330;2023-10-31T04:03:26;11.30;99.90
14188;DHT22;7175;51.978;5.330;2023-10-31T04:05:56;11.40;99.90
14188;DHT22;7175;51.978;5.330;2023-10-31T04:08:23;11.40;99.90
14188;DHT22;7175;51.978;5.330;2023-10-31T04:10:51;11.30;99.90
14188;DHT22;7175;51.978;5.330;2023-10-31T04:13:19;11.30;99.90
14188;DHT22;7175;51.978;5.330;2023-10-31T04:15:48;11.30;99.90
14188;DHT22;7175;51.978;5.330;2023-10-31T04:18:16;11.30;99.90
14188;DHT22;7175;51.978;5.330;2023-10-31T04:20:45;11.30;99.90
14188;DHT22;7175;51.978;5.330;2023-10-31T04:23:15;11.20;99.90
14188;DHT22;7175;51.978;5.330;2023-10-31T04:25:43;11.20;99.90
14188;DHT22;7175;51.978;5.330;2023-10-31T04:28:11;11.20;99.90
14188;DHT22;7175;51.978;5.330;2023-10-31T04:30:40;11.20;99.90
14188;DHT22;7175;51.978;5.330;2023-10-31T04:33:08;11.20;99.90
14188;DHT22;7175;51.978;5.330;2023-10-31T04:35:36;11.20;99.90
14188;DHT22;7175;51.978;5.330;2023-10-31T04:38:04;11.20;99.90
14188;DHT22;7175;51.978;5.330;2023-10-31T04:40:33;11.20;99.90
14188;DHT22;7175;51.978;5.330;2023-10-31T04:43:02;11.20;99.90
14188;DHT22;7175;51.978;5.330;2023-10-31T04:45:30;11.20;99.90
14188;DHT22;7175;51.978;5.330;2023-10-31T04:47:58;11.20;99.90
14188;DHT22;7175;51.978;5.330;2023-10-31T04:50:26;11.10;99.90
14188;DHT22;7175;51.978;5.330;2023-10-31T04:52:54;11.10;99.90
14188;DHT22;7175;51.978;5.330;2023-10-31T04:55:22;11.10;99.90
14188;DHT22;7175;51.978;5.330;2023-10-31T04:57:51;11.00;99.90
14188;DHT22;7175;51.978;5.330;2023-10-31T05:00:19;11.00;99.90
14188;DHT22;7175;51.978;5.330;2023-10-31T05:02:47;11.10;99.90
14188;DHT22;7175;51.978;5.330;2023-10-31T05:05:15;11.00;99.90
14188;DHT22;7175;51.978;5.330;2023-10-31T05:07:43;11.00;99.90
14188;DHT22;7175;51.978;5.330;2023-10-31T05:10:12;11.00;99.90
14188;DHT22;7175;51.978;5.330;2023-10-31T05:12:39;11.00;99.90
14188;DHT22;7175;51.978;5.330;2023-10-31T05:15:10;11.00;99.90
14188;DHT22;7175;51.978;5.330;2023-10-31T05:17:38;11.00;99.90
14188;DHT22;7175;51.978;5.330;2023-10-31T05:20:06;11.00;99.90
14188;DHT22;7175;51.978;5.330;2023-10-31T05:22:36;11.00;99.90
14188;DHT22;7175;51.978;5.330;2023-10-31T05:25:05;11.00;99.90
14188;DHT22;7175;51.978;5.330;2023-10-31T05:27:33;10.90;99.90
14188;DHT22;7175;51.978;5.330;2023-10-31T05:30:01;10.90;99.90
14188;DHT22;7175;51.978;5.330;2023-10-31T05:32:30;10.90;99.90
14188;DHT22;7175;51.978;5.330;2023-10-31T05:34:58;10.90;99.90
14188;DHT22;7175;51.978;5.330;2023-10-31T05:37:27;10.90;99.90
14188;DHT22;7175;51.978;5.330;2023-10-31T05:39:55;10.90;99.90
14188;DHT22;7175;51.978;5.330;2023-10-31T05:42:23;10.80;99.90
14188;DHT22;7175;51.978;5.330;2023-10-31T05:44:52;10.80;99.90
14188;DHT22;7175;51.978;5.330;2023-10-31T05:47:20;10.80;99.90
14188;DHT22;7175;51.978;5.330;2023-10-31T05:49:50;10.80;99.90
14188;DHT22;7175;51.978;5.330;2023-10-31T05:52:18;10.80;99.90
14188;DHT22;7175;51.978;5.330;2023-10-31T05:54:46;10.90;99.90
14188;DHT22;7175;51.978;5.330;2023-10-31T05:57:14;10.80;99.90
14188;DHT22;7175;51.978;5.330;2023-10-31T05:59:42;10.80;99.90
14188;DHT22;7175;51.978;5.330;2023-10-31T06:02:10;10.80;99.90
14188;DHT22;7175;51.978;5.330;2023-10-31T06:04:38;10.90;99.90
14188;DHT22;7175;51.978;5.330;2023-10-31T06:07:07;10.80;99.90
14188;DHT22;7175;51.978;5.330;2023-10-31T06:09:35;10.90;99.90
14188;DHT22;7175;51.978;5.330;2023-10-31T06:12:04;10.90;99.90
14188;DHT22;7175;51.978;5.330;2023-10-31T06:14:32;10.90;99.90
14188;DHT22;7175;51.978;5.330;2023-10-31T06:17:00;10.90;99.90
14188;DHT22;7175;51.978;5.330;2023-10-31T06:19:28;10.90;99.90
14188;DHT22;7175;51.978;5.330;2023-10-31T06:21:56;10.80;99.90
14188;DHT22;7175;51.978;5.330;2023-10-31T06:24:26;10.90;99.90
14188;DHT22;7175;51.978;5.330;2023-10-31T06:26:54;10.90;99.90
14188;DHT22;7175;51.978;5.330;2023-10-31T06:29:22;10.90;99.90
14188;DHT22;7175;51.978;5.330;2023-10-31T06:32:10;10.90;99.90
14188;DHT22;7175;51.978;5.330;2023-10-31T06:34:38;10.90;99.90
14188;DHT22;7175;51.978;5.330;2023-10-31T06:37:06;10.90;99.90
14188;DHT22;7175;51.978;5.330;2023-10-31T06:39:35;10.90;99.90
14188;DHT22;7175;51.978;5.330;2023-10-31T06:42:04;10.90;99.90
14188;DHT22;7175;51.978;5.330;2023-10-31T06:44:32;10.90;99.90
14188;DHT22;7175;51.978;5.330;2023-10-31T06:47:00;10.90;99.90
14188;DHT22;7175;51.978;5.330;2023-10-31T06:49:28;10.90;99.90
14188;DHT22;7175;51.978;5.330;2023-10-31T06:51:56;10.80;99.90
14188;DHT22;7175;51.978;5.330;2023-10-31T06:54:25;10.80;99.90
14188;DHT22;7175;51.978;5.330;2023-10-31T06:56:55;10.90;99.90
14188;DHT22;7175;51.978;5.330;2023-10-31T06:59:23;10.80;99.90
14188;DHT22;7175;51.978;5.330;2023-10-31T07:01:51;10.90;99.90
14188;DHT22;7175;51.978;5.330;2023-10-31T07:04:19;10.90;99.90
14188;DHT22;7175;51.978;5.330;2023-10-31T07:06:48;10.90;99.90
14188;DHT22;7175;51.978;5.330;2023-10-31T07:09:16;10.90;99.90
14188;DHT22;7175;51.978;5.330;2023-10-31T07:11:44;10.80;99.90
14188;DHT22;7175;51.978;5.330;2023-10-31T07:14:13;10.90;99.90
14188;DHT22;7175;51.978;5.330;2023-10-31T07:16:41;10.90;99.90
14188;DHT22;7175;51.978;5.330;2023-10-31T07:19:12;10.90;99.90
14188;DHT22;7175;51.978;5.330;2023-10-31T07:21:40;10.90;99.90
14188;DHT22;7175;51.978;5.330;2023-10-31T07:24:09;10.90;99.90
14188;DHT22;7175;51.978;5.330;2023-10-31T07:26:37;10.90;99.90
14188;DHT22;7175;51.978;5.330;2023-10-31T07:29:05;11.00;99.90
14188;DHT22;7175;51.978;5.330;2023-10-31T07:31:34;11.00;99.90
14188;DHT22;7175;51.978;5.330;2023-10-31T07:34:05;11.10;99.90
14188;DHT22;7175;51.978;5.330;2023-10-31T07:36:33;11.10;99.90
14188;DHT22;7175;51.978;5.330;2023-10-31T07:39:03;11.00;99.90
14188;DHT22;7175;51.978;5.330;2023-10-31T07:41:31;11.00;99.90
14188;DHT22;7175;51.978;5.330;2023-10-31T07:43:59;11.00;99.90
14188;DHT22;7175;51.978;5.330;2023-10-31T07:46:27;11.10;99.90
14188;DHT22;7175;51.978;5.330;2023-10-31T07:48:56;11.00;99.90
14188;DHT22;7175;51.978;5.330;2023-10-31T07:51:24;11.00;99.90
14188;DHT22;7175;51.978;5.330;2023-10-31T07:53:52;11.00;99.90
14188;DHT22;7175;51.978;5.330;2023-10-31T07:56:21;11.20;99.90
14188;DHT22;7175;51.978;5.330;2023-10-31T07:58:52;11.30;99.90
14188;DHT22;7175;51.978;5.330;2023-10-31T08:01:22;11.30;99.90
14188;DHT22;7175;51.978;5.330;2023-10-31T08:03:50;11.50;99.90
14188;DHT22;7175;51.978;5.330;2023-10-31T08:06:21;11.60;99.90
14188;DHT22;7175;51.978;5.330;2023-10-31T08:08:49;11.80;99.90
14188;DHT22;7175;51.978;5.330;2023-10-31T08:11:17;12.00;99.90
14188;DHT22;7175;51.978;5.330;2023-10-31T08:13:45;12.10;99.90
14188;DHT22;7175;51.978;5.330;2023-10-31T08:16:17;12.10;99.90
14188;DHT22;7175;51.978;5.330;2023-10-31T08:18:46;12.10;99.90
14188;DHT22;7175;51.978;5.330;2023-10-31T08:21:14;12.20;99.90
14188;DHT22;7175;51.978;5.330;2023-10-31T08:23:43;12.10;99.90
14188;DHT22;7175;51.978;5.330;2023-10-31T08:26:13;12.30;99.90
14188;DHT22;7175;51.978;5.330;2023-10-31T08:28:41;12.50;99.90
14188;DHT22;7175;51.978;5.330;2023-10-31T08:31:09;12.80;99.90
14188;DHT22;7175;51.978;5.330;2023-10-31T08:33:37;12.70;99.90
14188;DHT22;7175;51.978;5.330;2023-10-31T08:36:06;12.60;99.90
14188;DHT22;7175;51.978;5.330;2023-10-31T08:38:34;12.60;99.90
14188;DHT22;7175;51.978;5.330;2023-10-31T08:41:04;12.60;99.90
14188;DHT22;7175;51.978;5.330;2023-10-31T08:43:32;12.60;99.90
14188;DHT22;7175;51.978;5.330;2023-10-31T08:46:00;12.70;99.90
14188;DHT22;7175;51.978;5.330;2023-10-31T08:48:28;12.70;99.90
14188;DHT22;7175;51.978;5.330;2023-10-31T08:50:56;12.70;99.90
14188;DHT22;7175;51.978;5.330;2023-10-31T08:53:24;12.80;99.90
14188;DHT22;7175;51.978;5.330;2023-10-31T08:55:52;12.90;99.90
14188;DHT22;7175;51.978;5.330;2023-10-31T08:58:21;13.00;99.90
14188;DHT22;7175;51.978;5.330;2023-10-31T09:00:49;12.90;99.90
14188;DHT22;7175;51.978;5.330;2023-10-31T09:03:17;13.00;99.90
14188;DHT22;7175;51.978;5.330;2023-10-31T09:05:45;13.00;99.90
14188;DHT22;7175;51.978;5.330;2023-10-31T09:08:13;13.10;99.90
14188;DHT22;7175;51.978;5.330;2023-10-31T09:10:41;13.10;99.90
14188;DHT22;7175;51.978;5.330;2023-10-31T09:13:13;13.30;99.90
14188;DHT22;7175;51.978;5.330;2023-10-31T09:15:43;13.10;99.90
14188;DHT22;7175;51.978;5.330;2023-10-31T09:18:12;13.30;99.90
14188;DHT22;7175;51.978;5.330;2023-10-31T09:20:40;13.40;99.90
14188;DHT22;7175;51.978;5.330;2023-10-31T09:23:08;13.40;99.90
14188;DHT22;7175;51.978;5.330;2023-10-31T09:25:36;13.50;99.90
14188;DHT22;7175;51.978;5.330;2023-10-31T09:28:04;13.70;99.90
14188;DHT22;7175;51.978;5.330;2023-10-31T09:30:32;13.70;99.90
14188;DHT22;7175;51.978;5.330;2023-10-31T09:33:02;13.80;99.90
14188;DHT22;7175;51.978;5.330;2023-10-31T09:35:30;13.90;99.90
14188;DHT22;7175;51.978;5.330;2023-10-31T09:37:58;13.90;99.90
14188;DHT22;7175;51.978;5.330;2023-10-31T09:40:26;14.00;99.90
14188;DHT22;7175;51.978;5.330;2023-10-31T09:42:54;13.90;99.90
14188;DHT22;7175;51.978;5.330;2023-10-31T09:45:22;13.90;99.90
14188;DHT22;7175;51.978;5.330;2023-10-31T09:47:50;13.90;99.90
14188;DHT22;7175;51.978;5.330;2023-10-31T09:50:19;13.90;99.90
14188;DHT22;7175;51.978;5.330;2023-10-31T09:52:48;14.00;99.90
14188;DHT22;7175;51.978;5.330;2023-10-31T09:55:16;13.90;99.90
14188;DHT22;7175;51.978;5.330;2023-10-31T09:57:44;14.00;99.90
14188;DHT22;7175;51.978;5.330;2023-10-31T10:00:13;14.10;99.90
14188;DHT22;7175;51.978;5.330;2023-10-31T10:02:41;14.30;99.90
14188;DHT22;7175;51.978;5.330;2023-10-31T10:05:09;14.30;99.90
14188;DHT22;7175;51.978;5.330;2023-10-31T10:07:41;14.30;99.90
14188;DHT22;7175;51.978;5.330;2023-10-31T10:10:11;14.70;99.90
14188;DHT22;7175;51.978;5.330;2023-10-31T10:12:41;14.70;99.90
14188;DHT22;7175;51.978;5.330;2023-10-31T10:15:10;14.70;99.90
14188;DHT22;7175;51.978;5.330;2023-10-31T10:17:38;14.60;99.90
14188;DHT22;7175;51.978;5.330;2023-10-31T10:20:08;14.60;99.90
14188;DHT22;7175;51.978;5.330;2023-10-31T10:22:37;14.50;99.90
14188;DHT22;7175;51.978;5.330;2023-10-31T10:25:08;14.40;99.90
14188;DHT22;7175;51.978;5.330;2023-10-31T10:27:38;14.20;99.90
14188;DHT22;7175;51.978;5.330;2023-10-31T10:30:09;14.10;99.90
14188;DHT22;7175;51.978;5.330;2023-10-31T10:32:37;14.10;99.90
14188;DHT22;7175;51.978;5.330;2023-10-31T10:35:06;14.10;99.90
14188;DHT22;7175;51.978;5.330;2023-10-31T10:37:37;14.10;99.90
14188;DHT22;7175;51.978;5.330;2023-10-31T10:40:10;14.50;99.90
14188;DHT22;7175;51.978;5.330;2023-10-31T10:42:44;14.60;99.90
14188;DHT22;7175;51.978;5.330;2023-10-31T10:45:13;14.50;99.90
14188;DHT22;7175;51.978;5.330;2023-10-31T10:47:45;14.50;99.90
14188;DHT22;7175;51.978;5.330;2023-10-31T10:50:14;14.40;99.90
14188;DHT22;7175;51.978;5.330;2023-10-31T10:52:46;14.40;99.90
14188;DHT22;7175;51.978;5.330;2023-10-31T10:55:21;14.70;99.90
14188;DHT22;7175;51.978;5.330;2023-10-31T10:57:59;14.50;99.90
14188;DHT22;7175;51.978;5.330;2023-10-31T11:00:28;14.80;99.90
14188;DHT22;7175;51.978;5.330;2023-10-31T11:02:59;15.00;99.90
14188;DHT22;7175;51.978;5.330;2023-10-31T11:05:28;15.00;99.90
14188;DHT22;7175;51.978;5.330;2023-10-31T11:07:59;15.20;99.90
14188;DHT22;7175;51.978;5.330;2023-10-31T11:10:29;15.30;99.90
14188;DHT22;7175;51.978;5.330;2023-10-31T11:12:57;15.30;99.90
14188;DHT22;7175;51.978;5.330;2023-10-31T11:15:26;15.10;99.90
14188;DHT22;7175;51.978;5.330;2023-10-31T11:17:55;15.20;99.90
14188;DHT22;7175;51.978;5.330;2023-10-31T11:20:24;15.00;99.90
14188;DHT22;7175;51.978;5.330;2023-10-31T11:22:56;14.60;99.90
14188;DHT22;7175;51.978;5.330;2023-10-31T11:25:25;14.60;99.90
14188;DHT22;7175;51.978;5.330;2023-10-31T11:28:12;14.40;99.90
14188;DHT22;7175;51.978;5.330;2023-10-31T11:30:41;14.50;99.90
14188;DHT22;7175;51.978;5.330;2023-10-31T11:33:13;14.70;99.90
14188;DHT22;7175;51.978;5.330;2023-10-31T11:35:42;14.70;99.90
14188;DHT22;7175;51.978;5.330;2023-10-31T11:38:11;14.50;99.90
14188;DHT22;7175;51.978;5.330;2023-10-31T11:40:58;14.40;99.90
14188;DHT22;7175;51.978;5.330;2023-10-31T11:43:50;14.50;99.90
14188;DHT22;7175;51.978;5.330;2023-10-31T11:46:18;14.40;99.90
14188;DHT22;7175;51.978;5.330;2023-10-31T11:48:48;14.30;99.90
14188;DHT22;7175;51.978;5.330;2023-10-31T11:51:17;14.40;99.90
14188;DHT22;7175;51.978;5.330;2023-10-31T11:53:45;14.40;99.90
14188;DHT22;7175;51.978;5.330;2023-10-31T11:56:13;14.40;99.90
14188;DHT22;7175;51.978;5.330;2023-10-31T11:58:43;14.40;99.90
14188;DHT22;7175;51.978;5.330;2023-10-31T12:01:11;14.10;99.90
14188;DHT22;7175;51.978;5.330;2023-10-31T12:03:41;14.00;99.90
14188;DHT22;7175;51.978;5.330;2023-10-31T12:06:10;14.10;99.90
14188;DHT22;7175;51.978;5.330;2023-10-31T12:08:39;14.20;99.90
14188;DHT22;7175;51.978;5.330;2023-10-31T12:11:09;14.30;99.90
14188;DHT22;7175;51.978;5.330;2023-10-31T12:13:38;14.30;99.90
14188;DHT22;7175;51.978;5.330;2023-10-31T12:16:09;14.40;99.90
14188;DHT22;7175;51.978;5.330;2023-10-31T12:18:39;14.30;99.90
14188;DHT22;7175;51.978;5.330;2023-10-31T12:21:07;14.20;99.90
14188;DHT22;7175;51.978;5.330;2023-10-31T12:23:37;14.40;99.90
14188;DHT22;7175;51.978;5.330;2023-10-31T12:26:05;14.70;99.90
14188;DHT22;7175;51.978;5.330;2023-10-31T12:28:34;14.80;99.90
14188;DHT22;7175;51.978;5.330;2023-10-31T12:31:05;14.80;99.90
14188;DHT22;7175;51.978;5.330;2023-10-31T12:33:35;14.70;99.90
14188;DHT22;7175;51.978;5.330;2023-10-31T12:36:04;14.60;99.90
14188;DHT22;7175;51.978;5.330;2023-10-31T12:38:32;14.60;99.90
14188;DHT22;7175;51.978;5.330;2023-10-31T12:41:02;14.70;99.90
14188;DHT22;7175;51.978;5.330;2023-10-31T12:43:30;14.70;99.90
14188;DHT22;7175;51.978;5.330;2023-10-31T12:45:58;14.60;99.90
14188;DHT22;7175;51.978;5.330;2023-10-31T12:48:48;14.50;99.90
14188;DHT22;7175;51.978;5.330;2023-10-31T12:51:16;14.50;99.90
14188;DHT22;7175;51.978;5.330;2023-10-31T12:53:48;14.60;99.90
14188;DHT22;7175;51.978;5.330;2023-10-31T12:56:34;14.60;99.90
14188;DHT22;7175;51.978;5.330;2023-10-31T12:59:04;14.40;99.90
14188;DHT22;7175;51.978;5.330;2023-10-31T13:01:35;14.40;99.90
14188;DHT22;7175;51.978;5.330;2023-10-31T13:04:05;14.40;99.90
14188;DHT22;7175;51.978;5.330;2023-10-31T13:06:34;14.80;99.90
14188;DHT22;7175;51.978;5.330;2023-10-31T13:09:03;14.80;99.90
14188;DHT22;7175;51.978;5.330;2023-10-31T13:11:39;14.90;99.90
14188;DHT22;7175;51.978;5.330;2023-10-31T13:14:08;15.20;99.90
14188;DHT22;7175;51.978;5.330;2023-10-31T13:16:36;15.20;99.90
14188;DHT22;7175;51.978;5.330;2023-10-31T13:19:06;15.00;99.90
14188;DHT22;7175;51.978;5.330;2023-10-31T13:21:34;14.80;99.90
14188;DHT22;7175;51.978;5.330;2023-10-31T13:24:03;14.90;99.90
14188;DHT22;7175;51.978;5.330;2023-10-31T13:26:31;14.90;99.90
14188;DHT22;7175;51.978;5.330;2023-10-31T13:28:59;14.60;99.90
14188;DHT22;7175;51.978;5.330;2023-10-31T13:31:27;14.50;99.90
14188;DHT22;7175;51.978;5.330;2023-10-31T13:33:55;14.40;99.90
14188;DHT22;7175;51.978;5.330;2023-10-31T13:36:24;14.20;99.90
14188;DHT22;7175;51.978;5.330;2023-10-31T13:38:52;14.20;99.90
14188;DHT22;7175;51.978;5.330;2023-10-31T13:41:21;14.10;99.90
14188;DHT22;7175;51.978;5.330;2023-10-31T13:43:49;14.20;99.90
14188;DHT22;7175;51.978;5.330;2023-10-31T13:46:17;14.10;99.90
14188;DHT22;7175;51.978;5.330;2023-10-31T13:48:45;14.00;99.90
14188;DHT22;7175;51.978;5.330;2023-10-31T13:51:13;14.00;99.90
14188;DHT22;7175;51.978;5.330;2023-10-31T13:53:45;14.10;99.90
14188;DHT22;7175;51.978;5.330;2023-10-31T13:56:13;14.10;99.90
14188;DHT22;7175;51.978;5.330;2023-10-31T13:58:41;14.00;99.90
14188;DHT22;7175;51.978;5.330;2023-10-31T14:01:09;14.00;99.90
14188;DHT22;7175;51.978;5.330;2023-10-31T14:03:38;14.00;99.90
14188;DHT22;7175;51.978;5.330;2023-10-31T14:06:06;14.10;99.90
14188;DHT22;7175;51.978;5.330;2023-10-31T14:08:34;14.10;99.90
14188;DHT22;7175;51.978;5.330;2023-10-31T14:11:04;14.10;99.90
14188;DHT22;7175;51.978;5.330;2023-10-31T14:13:32;14.10;99.90
14188;DHT22;7175;51.978;5.330;2023-10-31T14:16:00;13.90;99.90
14188;DHT22;7175;51.978;5.330;2023-10-31T14:18:28;13.90;99.90
14188;DHT22;7175;51.978;5.330;2023-10-31T14:20:56;13.80;99.90
14188;DHT22;7175;51.978;5.330;2023-10-31T14:23:24;13.80;99.90
14188;DHT22;7175;51.978;5.330;2023-10-31T14:25:53;13.60;99.90
14188;DHT22;7175;51.978;5.330;2023-10-31T14:28:23;13.60;99.90
14188;DHT22;7175;51.978;5.330;2023-10-31T14:30:51;13.70;99.90
14188;DHT22;7175;51.978;5.330;2023-10-31T14:33:19;13.70;99.90
14188;DHT22;7175;51.978;5.330;2023-10-31T14:35:48;13.60;99.90
14188;DHT22;7175;51.978;5.330;2023-10-31T14:38:16;13.60;99.90
14188;DHT22;7175;51.978;5.330;2023-10-31T14:40:44;13.50;99.90
14188;DHT22;7175;51.978;5.330;2023-10-31T14:43:13;13.50;99.90
14188;DHT22;7175;51.978;5.330;2023-10-31T14:45:47;13.40;99.90
14188;DHT22;7175;51.978;5.330;2023-10-31T14:48:15;13.40;99.90
14188;DHT22;7175;51.978;5.330;2023-10-31T14:50:43;13.40;99.90
14188;DHT22;7175;51.978;5.330;2023-10-31T14:53:11;13.30;99.90
14188;DHT22;7175;51.978;5.330;2023-10-31T14:55:39;13.20;99.90
14188;DHT22;7175;51.978;5.330;2023-10-31T14:58:07;13.20;99.90
14188;DHT22;7175;51.978;5.330;2023-10-31T15:00:35;13.20;99.90
14188;DHT22;7175;51.978;5.330;2023-10-31T15:03:05;13.10;99.90
14188;DHT22;7175;51.978;5.330;2023-10-31T15:05:33;13.00;99.90
14188;DHT22;7175;51.978;5.330;2023-10-31T15:08:02;12.90;99.90
14188;DHT22;7175;51.978;5.330;2023-10-31T15:10:30;12.90;99.90
14188;DHT22;7175;51.978;5.330;2023-10-31T15:12:59;12.80;99.90
14188;DHT22;7175;51.978;5.330;2023-10-31T15:15:31;12.70;99.90
14188;DHT22;7175;51.978;5.330;2023-10-31T15:17:59;12.70;99.90
14188;DHT22;7175;51.978;5.330;2023-10-31T15:20:29;12.70;99.90
14188;DHT22;7175;51.978;5.330;2023-10-31T15:22:58;12.70;99.90
14188;DHT22;7175;51.978;5.330;2023-10-31T15:25:26;12.60;99.90
14188;DHT22;7175;51.978;5.330;2023-10-31T15:27:54;12.60;99.90
14188;DHT22;7175;51.978;5.330;2023-10-31T15:30:22;12.60;99.90
14188;DHT22;7175;51.978;5.330;2023-10-31T15:32:50;12.50;99.90
14188;DHT22;7175;51.978;5.330;2023-10-31T15:35:19;12.40;99.90
14188;DHT22;7175;51.978;5.330;2023-10-31T15:37:49;12.50;99.90
14188;DHT22;7175;51.978;5.330;2023-10-31T15:40:17;12.50;99.90
14188;DHT22;7175;51.978;5.330;2023-10-31T15:42:45;12.60;99.90
14188;DHT22;7175;51.978;5.330;2023-10-31T15:45:13;12.60;99.90
14188;DHT22;7175;51.978;5.330;2023-10-31T15:47:41;12.50;99.90
14188;DHT22;7175;51.978;5.330;2023-10-31T15:50:10;12.40;99.90
14188;DHT22;7175;51.978;5.330;2023-10-31T15:52:38;12.50;99.90
14188;DHT22;7175;51.978;5.330;2023-10-31T15:55:08;12.60;99.90